Youtube Kanal Analizi - Youtube sıra bulucu

Zic Zic

Zic Zic

Subscribers

7,110,000

Views

767,404,982

videos

479

Youtube Link
ZIC ZIC is a channel where we make learn colors, learning videos for preschools, kids, chilren, babies and toddlers. I open a lot of surprise toys for kids, and do toy reviews plus fun creative videos. Here you will find videos of finger family nursery rhymes, Play Doh, Kinetic Sand, Toys Copyright © by ZicZic Corporation: contact@ziczic.ca
Date Day Subscribers Views Videos
2026-07-25 Sat 7,110,000 - 765,776,994 - 455 -
2026-07-26 Sun 7,110,000 - 765,801,969 24,975 455 -
2026-07-27 Mon 7,110,000 - 765,809,526 7,557 455 -
2026-07-28 Tue 7,110,000 - 765,836,962 27,436 455 -
2026-07-29 Wed 7,110,000 - 765,850,312 13,350 455 -
2026-07-30 Thu 7,110,000 - 765,870,778 20,466 455 -
2026-08-01 Sat 7,110,000 - 765,883,157 12,379 455 -
2026-08-02 Sun 7,110,000 - 765,883,157 - 455 -
2026-08-03 Mon 7,110,000 - 765,883,157 - 455 -
2026-08-04 Tue 7,110,000 - 765,941,830 58,673 455 -
2026-08-05 Wed 7,110,000 - 765,972,087 30,257 455 -
2026-08-06 Thu 7,110,000 - 766,000,274 28,187 455 -
2026-08-08 Sat 7,110,000 - 766,070,227 69,953 455 -
2026-08-09 Sun 7,110,000 - 766,115,691 45,464 455 -
2026-08-10 Mon 7,110,000 - 766,154,099 38,408 479 24
2026-08-11 Tue 7,110,000 - 766,373,977 219,878 479 -
2026-08-13 Thu 7,110,000 - 766,427,557 53,580 479 -
2026-08-14 Fri 7,110,000 - 766,450,074 22,517 479 -
2026-08-15 Sat 7,110,000 - 766,487,855 37,781 479 -
2026-08-16 Sun 7,110,000 - 766,526,352 38,497 479 -
2026-08-18 Tue 7,110,000 - 766,624,242 97,890 479 -
2026-08-19 Wed 7,110,000 - 766,716,540 92,298 479 -
2026-08-21 Fri 7,110,000 - 766,905,272 188,732 479 -
2026-08-22 Sat 7,110,000 - 766,987,441 82,169 479 -
2026-08-23 Sun 7,110,000 - 767,096,150 108,709 479 -
2026-08-24 Mon 7,110,000 - 767,184,684 88,534 479 -
2026-08-25 Tue 7,110,000 - 767,244,942 60,258 479 -
2026-08-27 Thu 7,110,000 - 767,311,207 66,265 479 -
2026-08-29 Sat 7,110,000 - 767,360,889 49,682 479 -
2026-08-30 Sun 7,110,000 - 767,404,982 44,093 479 -
Difference 0 1,627,988 24